ADDS METAR Data INFO
IDs: Format: Raw Decoded Include TAF

Data at: 0901 UTC 20 Oct 2017

KCDI 200853Z AUTO 00000KT 06/06 A3024 RMK AO2 T00580060 PWINO
KCDI 200833Z AUTO 00000KT 06/07 A3024 RMK AO2 T00640066 PWINO
KCDI 200804Z AUTO 00000KT 5SM BR CLR 06/06 A3024 RMK AO2 T00590060
KCDI 200753Z AUTO 00000KT 10SM CLR 07/07 A3023 RMK AO2 T00670068
KCDI 200733Z AUTO 00000KT 10SM CLR 07/07 A3023 RMK AO2 T00680069
KCDI 200704Z AUTO 00000KT 10SM CLR 07/07 A3023 RMK AO2 T00720074
KCDI 200653Z AUTO 00000KT 10SM CLR 07/08 A3023 RMK AO2 T00730075
KCDI 200633Z AUTO 00000KT 10SM CLR 07/07 A3023 RMK AO2 T00720073
KCDI 200604Z AUTO 00000KT 10SM CLR 07/07 A3023 RMK AO2 T00710071
KCDI 200553Z AUTO 00000KT 10SM CLR 07/07 A3023 RMK AO2 T00720073 10108 20070
KCDI 200533Z AUTO 00000KT 10SM CLR 07/07 A3023 RMK AO2 T00730074
KCDI 200504Z AUTO 00000KT 10SM CLR 07/08 A3023 RMK AO2 T00740075
KCDI 200453Z AUTO 00000KT 10SM CLR 08/08 A3022 RMK AO2 T00780078 402250006
KCDI 200433Z AUTO 00000KT 10SM CLR 08/08 A3022 RMK AO2 T00800080
KCDI 200404Z AUTO 00000KT 10SM CLR 08/08 A3022 RMK AO2 T00800080
KCDI 200353Z AUTO 00000KT 10SM CLR 08/07 A3022 RMK AO2 T00760071
KCDI 200333Z AUTO 00000KT 10SM CLR 08/07 A3022 RMK AO2 T00820074
KCDI 200304Z AUTO 00000KT 10SM CLR 09/08 A3021 RMK AO2 T00850080
KCDI 200253Z AUTO 00000KT 10SM CLR 09/08 A3021 RMK AO2 T00850079
KCDI 200233Z AUTO 00000KT 10SM CLR 09/08 A3021 RMK AO2 T00850076
KCDI 200204Z AUTO 00000KT 10SM CLR 09/08 A3020 RMK AO2 T00900081
KCDI 200153Z AUTO 20004KT 10SM CLR 09/08 A3021 RMK AO2 T00900081
KCDI 200133Z AUTO 20003KT 10SM CLR 09/08 A3020 RMK AO2 T00920081
KCDI 200104Z AUTO 20003KT 10SM CLR 10/08 A3020 RMK AO2 T00950084
KCDI 200053Z AUTO 20004KT 10SM CLR 10/08 A3020 RMK AO2 T00960083
KCDI 200033Z AUTO 20003KT 10SM CLR 10/09 A3020 RMK AO2 T01030085
KCDI 200004Z AUTO 20003KT 10SM CLR 11/09 A3019 RMK AO2 T01050088
KCDI 192353Z AUTO 20003KT 10SM CLR 11/09 A3020 RMK AO2 T01100090 10225 20110
KCDI 192333Z AUTO 00000KT 10SM CLR 12/10 A3019 RMK AO2 T01200096
KCDI 192304Z AUTO 20003KT 10SM CLR 14/10 A3018 RMK AO2 T01350101
KCDI 192253Z AUTO 00000KT 10SM CLR 14/10 A3018 RMK AO2 T01440101
KCDI 192233Z AUTO 00000KT 10SM CLR 17/10 A3017 RMK AO2 T01680100
KCDI 192204Z AUTO 00000KT 10SM CLR 20/09 A3017 RMK AO2 T02040090
KCDI 192153Z AUTO 21004KT 10SM CLR 21/09 A3017 RMK AO2 T02080088
KCDI 192133Z AUTO 22006KT 10SM CLR 21/09 A3017 RMK AO2 T02130085
KCDI 192104Z AUTO 20009KT 10SM CLR 22/08 A3017 RMK AO2 T02200084
KCDI 192053Z AUTO 24006KT 10SM CLR 22/08 A3017 RMK AO2 T02200084
KCDI 192033Z AUTO 22007KT 10SM CLR 22/09 A3017 RMK AO2 T02220087
KCDI 192004Z AUTO 21005G14KT 10SM CLR 22/09 A3018 RMK AO2 T02230087
KCDI 191953Z AUTO 23004G08KT 10SM CLR 22/09 A3018 RMK AO2 T02220090
KCDI 191932Z AUTO 21009KT 10SM CLR 22/09 A3018 RMK AO2 T02200086
KCDI 191905Z AUTO 23007G17KT 10SM CLR 22/09 A3019 RMK AO2 T02200089
KCDI 191853Z AUTO 20009G16KT 10SM CLR 22/09 A3018 RMK AO2 T02180091
KCDI 191832Z AUTO 19010KT 10SM CLR 22/09 A3019 RMK AO2 T02180089
KCDI 191758Z AUTO 20008KT 10SM CLR 22/09 A3020 RMK AO2 T02160092 10216 20011
KCDI 191733Z AUTO 24006KT 10SM CLR 21/09 A3022 RMK AO2 T02080086
KCDI 191705Z AUTO 22006KT 10SM CLR 21/09 A3022 RMK AO2 T02060088
KCDI 191653Z AUTO 22007G14KT 190V260 10SM CLR 20/08 A3023 RMK AO2 T02020084
KCDI 191633Z AUTO 20007KT 10SM CLR 20/09 A3024 RMK AO2 T01960085
KCDI 191605Z AUTO 19008KT 10SM CLR 19/08 A3024 RMK AO2 T01870084
KCDI 191553Z AUTO 23006KT 10SM CLR 19/09 A3024 RMK AO2 T01860086
KCDI 191532Z AUTO 19007KT 10SM CLR 18/09 A3025 RMK AO2 T01800086
KCDI 191505Z AUTO 19009KT 10SM CLR 17/09 A3026 RMK AO2 T01660087
KCDI 191453Z AUTO 20007KT 10SM CLR 16/08 A3026 RMK AO2 T01590082
KCDI 191432Z AUTO 18005KT 10SM CLR 15/09 A3026 RMK AO2 T01480086
KCDI 191405Z AUTO 19006KT 10SM CLR 13/08 A3026 RMK AO2 T01260079
KCDI 191353Z AUTO 19006KT 10SM CLR 12/08 A3026 RMK AO2 T01170080
KCDI 191332Z AUTO 19004KT 10SM CLR 10/08 A3026 RMK AO2 T00970075
KCDI 191305Z AUTO 00000KT 10SM CLR 05/05 A3025 RMK AO2 T00540050
KCDI 191253Z AUTO 00000KT 10SM CLR 04/04 A3025 RMK AO2 T00390040
KCDI 191232Z AUTO 00000KT 10SM CLR 02/02 A3025 RMK AO2 T00220023
KCDI 191205Z AUTO 00000KT 7SM CLR 01/01 A3023 RMK AO2 T00110012
KCDI 191153Z AUTO 00000KT 7SM CLR 01/01 A3023 RMK AO2 T00100011 10030 20006
KCDI 191132Z AUTO 00000KT 7SM CLR 01/01 A3024 RMK AO2 T00080009
KCDI 191105Z AUTO 00000KT 5SM BR CLR 01/01 A3024 RMK AO2 T00110011
KCDI 191053Z AUTO 00000KT 5SM BR CLR 01/01 A3024 RMK AO2 T00100010
KCDI 191032Z AUTO 00000KT 7SM CLR 01/02 A3024 RMK AO2 T00140015
KCDI 191005Z AUTO 00000KT 7SM CLR 01/01 A3024 RMK AO2 T00110012
KCDI 190953Z AUTO 00000KT 7SM CLR 01/01 A3024 RMK AO2 T00130014
KCDI 190932Z AUTO 00000KT 7SM CLR 01/01 A3023 RMK AO2 T00130014
KCDI 190905Z AUTO 00000KT 7SM CLR 01/02 A3023 RMK AO2 T00130015
KCDI 190853Z AUTO 00000KT 7SM CLR 02/02 A3023 RMK AO2 T00200021
KCDI 190832Z AUTO 00000KT 10SM CLR 02/02 A3022 RMK AO2 T00170018
KCDI 190805Z AUTO 00000KT 10SM CLR 02/02 A3022 RMK AO2 T00190020
KCDI 190753Z AUTO 00000KT 7SM CLR 02/02 A3023 RMK AO2 T00160017
KCDI 190733Z AUTO 00000KT 7SM CLR 02/02 A3023 RMK AO2 T00210023
KCDI 190705Z AUTO 00000KT 7SM CLR 02/02 A3023 RMK AO2 T00230024
KCDI 190652Z AUTO 00000KT 5SM BR CLR 02/02 A3023 RMK AO2 T00210021
KCDI 190632Z AUTO 00000KT 10SM CLR 03/03 A3023 RMK AO2 T00260027
KCDI 190605Z AUTO 00000KT 7SM CLR 03/03 A3023 RMK AO2 T00280029
KCDI 190552Z AUTO 20003KT 10SM CLR 03/03 A3023 RMK AO2 T00260027
KCDI 190532Z AUTO 00000KT 10SM CLR 03/04 A3022 RMK AO2 T00340035
KCDI 190505Z AUTO 00000KT 10SM CLR 03/03 A3022 RMK AO2 T00300031
KCDI 190452Z AUTO 00000KT 10SM CLR 03/03 A3022 RMK AO2 T00320033
KCDI 190433Z AUTO 00000KT 10SM CLR 04/04 A3022 RMK AO2 T00390040
KCDI 190405Z AUTO 00000KT 10SM CLR 04/04 A3022 RMK AO2 T00360037
KCDI 190352Z AUTO 00000KT 10SM CLR 04/04 A3022 RMK AO2 T00390040
KCDI 190333Z AUTO 00000KT 10SM CLR 04/04 A3023 RMK AO2 T00370036
KCDI 190305Z AUTO 00000KT 10SM CLR 04/03 A3023 RMK AO2 T00390034
KCDI 190252Z AUTO 00000KT 10SM CLR 04/04 A3022 RMK AO2 T00430037
KCDI 190233Z AUTO 00000KT 10SM CLR 05/04 A3022 RMK AO2 T00490042
KCDI 190205Z AUTO 10SM CLR 05/04 A3023 RMK AO2 T00510044
KCDI 190152Z AUTO 00000KT 10SM CLR 05/05 A3023 RMK AO2 T00540046
KCDI 190133Z AUTO 10SM CLR 05/04 A3023 RMK AO2 T00540043
KCDI 190104Z AUTO 00000KT 10SM CLR 06/05 A3023 RMK AO2 T00620050
KCDI 190052Z AUTO 00000KT 10SM CLR 07/05 A3023 RMK AO2 T00650050
KCDI 190033Z AUTO 00000KT 10SM CLR 07/05 A3024 RMK AO2 T00670050
KCDI 190004Z AUTO 00000KT 10SM CLR 08/06 A3024 RMK AO2 T00790058
KCDI 182352Z AUTO 00000KT 10SM CLR 08/06 A3024 RMK AO2 T00840062
KCDI 182333Z AUTO 00000KT 10SM CLR 09/07 A3023 RMK AO2 T00930066
KCDI 182304Z AUTO 00000KT 10SM CLR 11/07 A3023 RMK AO2 T01070069
KCDI 182252Z AUTO 00000KT 10SM CLR 11/07 A3023 RMK AO2 T01130066
KCDI 182233Z AUTO 00000KT 10SM CLR 14/06 A3023 RMK AO2 T01400062
KCDI 182204Z AUTO 00000KT 10SM CLR 19/04 A3023 RMK AO2 T01850036
KCDI 182153Z AUTO 20003KT 10SM CLR 19/03 A3023 RMK AO2 T01910034
KCDI 182133Z AUTO 19005KT 10SM CLR 20/03 A3023 RMK AO2 T01980033
KCDI 182104Z AUTO 18006KT 10SM CLR 21/04 A3023 RMK AO2 T02050039